Time;durP1;ratioP1;P1;durP2;ratioP2;P2;SDS_P1;SDS_P2;PMS_P1;PMS_P2;Temp;Humidity;BMP_temperature;BMP_pressure;BME280_temperature;BME280_humidity;BME280_pressure;Samples;Min_cycle;Max_cycle;Signal;HPM_P1;HPM_P2
2022/06/26 00:00:53;;;;;;;2.30;0.80;;;;;;;23.88;54.99;100204.09;5023677;28;20213;-65
2022/06/26 00:03:22;;;;;;;1.30;0.77;;;;;;;23.87;54.89;100207.06;5018322;28;20208;-64
2022/06/26 00:05:50;;;;;;;1.50;0.70;;;;;;;23.84;55.28;100204.81;5021252;28;20251;-65
2022/06/26 00:08:18;;;;;;;0.80;0.50;;;;;;;23.82;55.41;100212.38;5017491;28;20771;-65
2022/06/26 00:10:46;;;;;;;3.33;0.95;;;;;;;23.81;55.87;100216.16;5018874;28;20705;-64
2022/06/26 00:13:14;;;;;;;13.32;0.80;;;;;;;23.80;55.83;100214.50;5018633;28;20249;-65
2022/06/26 00:15:42;;;;;;;0.55;0.50;;;;;;;23.75;56.35;100215.22;5019088;28;20209;-65
2022/06/26 00:18:10;;;;;;;5.40;0.82;;;;;;;23.70;56.71;100217.81;5022226;28;20216;-65
2022/06/26 00:20:39;;;;;;;2.15;0.77;;;;;;;23.65;56.88;100228.56;5018221;28;20219;-65
2022/06/26 00:23:07;;;;;;;3.05;0.60;;;;;;;23.63;57.22;100226.09;5017227;28;20201;-65
2022/06/26 00:25:35;;;;;;;1.05;0.75;;;;;;;23.64;57.46;100226.91;5018791;28;20260;-65
2022/06/26 00:28:03;;;;;;;0.95;0.52;;;;;;;23.58;57.67;100223.25;5018212;28;20226;-66
2022/06/26 00:30:31;;;;;;;2.97;0.57;;;;;;;23.59;57.62;100235.72;5020201;28;20237;-64
2022/06/26 00:32:59;;;;;;;2.75;0.80;;;;;;;23.56;58.14;100230.81;5018283;28;20213;-65
2022/06/26 00:35:27;;;;;;;2.58;0.75;;;;;;;23.54;57.95;100227.53;5022332;28;20288;-64
2022/06/26 00:37:56;;;;;;;3.20;0.90;;;;;;;23.54;58.01;100235.63;5022262;28;20217;-65
2022/06/26 00:40:25;;;;;;;1.95;0.70;;;;;;;23.51;58.22;100238.81;5019679;28;20692;-65
2022/06/26 00:42:53;;;;;;;1.83;0.70;;;;;;;23.49;58.45;100245.50;5021224;28;20201;-64
2022/06/26 00:45:20;;;;;;;1.98;0.73;;;;;;;23.47;58.19;100243.03;5021829;28;20230;-65
2022/06/26 00:47:48;;;;;;;3.25;0.75;;;;;;;23.41;58.73;100248.56;5019797;28;20208;-65
2022/06/26 00:50:16;;;;;;;3.58;0.90;;;;;;;23.37;59.55;100256.34;5019332;28;20312;-64
2022/06/26 00:52:45;;;;;;;1.63;0.80;;;;;;;23.39;59.20;100258.81;5022170;28;20298;-65
2022/06/26 00:55:15;;;;;;;2.57;0.73;;;;;;;23.29;59.73;100267.53;5024511;28;20648;-65
2022/06/26 00:57:43;;;;;;;1.88;1.05;;;;;;;23.18;59.85;100265.63;5023049;28;20232;-65
2022/06/26 01:00:12;;;;;;;1.83;0.70;;;;;;;23.12;59.63;100272.00;5026471;28;20210;-65
2022/06/26 01:02:41;;;;;;;1.13;0.70;;;;;;;23.05;60.40;100273.97;5018034;28;20240;-65
2022/06/26 01:05:10;;;;;;;1.57;0.70;;;;;;;23.02;60.07;100280.69;5016689;28;20224;-65
2022/06/26 01:07:38;;;;;;;2.05;0.80;;;;;;;23.05;60.51;100288.31;5020913;28;20209;-65
2022/06/26 01:10:07;;;;;;;3.05;0.80;;;;;;;23.10;60.42;100279.50;5020677;28;20208;-65
2022/06/26 01:12:36;;;;;;;2.08;0.70;;;;;;;23.14;60.72;100280.69;5016528;28;20294;-65
2022/06/26 01:15:07;;;;;;;5.03;0.90;;;;;;;23.15;60.08;100287.72;5021523;28;20227;-65
2022/06/26 01:17:36;;;;;;;3.27;0.80;;;;;;;23.08;60.47;100287.03;5020456;28;20303;-65
2022/06/26 01:20:06;;;;;;;1.30;0.70;;;;;;;23.02;60.94;100298.78;5020916;28;20205;-65
2022/06/26 01:22:36;;;;;;;2.00;0.80;;;;;;;22.94;60.30;100296.44;5022849;28;20217;-65
2022/06/26 01:25:04;;;;;;;1.40;0.70;;;;;;;22.91;60.64;100296.88;5021568;28;20220;-65
2022/06/26 01:27:40;;;;;;;1.70;0.70;;;;;;;22.91;60.67;100299.59;5022046;28;20230;-64
2022/06/26 01:30:09;;;;;;;2.93;0.87;;;;;;;22.96;61.05;100310.53;5025399;28;20299;-66
2022/06/26 01:32:37;;;;;;;1.63;0.97;;;;;;;23.05;61.24;100328.06;5020709;28;20654;-66
2022/06/26 01:35:06;;;;;;;1.65;0.90;;;;;;;23.08;61.68;100335.72;5025664;28;20800;-65
2022/06/26 01:37:33;;;;;;;3.33;0.80;;;;;;;23.10;61.18;100342.53;5023195;28;20220;-64
2022/06/26 01:40:03;;;;;;;3.30;0.73;;;;;;;23.03;61.36;100349.94;5026626;28;20204;-65
2022/06/26 01:42:31;;;;;;;2.63;0.80;;;;;;;22.89;61.69;100353.91;5022838;28;20209;-65
2022/06/26 01:44:59;;;;;;;2.90;0.80;;;;;;;22.82;62.12;100339.66;5025362;28;20718;-64
2022/06/26 01:47:27;;;;;;;2.50;0.80;;;;;;;22.83;62.97;100350.25;5023027;28;20214;-64
2022/06/26 01:49:55;;;;;;;2.10;0.90;;;;;;;22.90;63.22;100344.72;5025672;28;20645;-64
2022/06/26 01:52:22;;;;;;;1.40;0.90;;;;;;;22.95;63.30;100330.53;5019916;28;20303;-64
2022/06/26 01:54:51;;;;;;;1.30;0.60;;;;;;;23.02;63.58;100336.66;5025502;28;20207;-64
2022/06/26 01:57:20;;;;;;;2.73;0.70;;;;;;;23.02;64.36;100334.78;5023274;28;20273;-65
2022/06/26 01:59:48;;;;;;;2.90;0.90;;;;;;;22.89;65.51;100341.19;5021404;28;20209;-64
2022/06/26 02:02:15;;;;;;;2.07;0.90;;;;;;;22.83;65.94;100323.22;5022831;28;20209;-64
2022/06/26 02:04:43;;;;;;;0.77;0.60;;;;;;;22.69;68.99;100324.41;5021858;28;20590;-65
2022/06/26 02:07:11;;;;;;;1.23;0.70;;;;;;;22.51;69.34;100319.09;5027049;28;20662;-66
2022/06/26 02:15:11;;;;;;;4.63;1.10;;;;;;;22.32;73.72;100312.09;5022489;28;20583;-65
2022/06/26 02:17:39;;;;;;;8.53;1.43;;;;;;;22.38;74.04;100303.06;5025870;28;20278;-65
2022/06/26 02:20:08;;;;;;;5.13;1.40;;;;;;;22.35;75.08;100300.81;5024415;28;20239;-65
2022/06/26 02:22:35;;;;;;;3.13;1.10;;;;;;;22.19;78.09;100293.34;5019811;28;20355;-65
2022/06/26 02:25:04;;;;;;;6.03;1.40;;;;;;;22.06;79.72;100295.19;5022040;28;20500;-66
2022/06/26 02:27:33;;;;;;;2.07;1.30;;;;;;;21.93;81.55;100295.31;5022050;28;20244;-65
2022/06/26 02:30:01;;;;;;;3.40;1.40;;;;;;;21.87;82.18;100290.81;5012143;28;21655;-64
2022/06/26 02:32:29;;;;;;;3.77;1.30;;;;;;;21.86;82.42;100283.75;5018312;28;20296;-65
2022/06/26 02:34:57;;;;;;;3.33;1.40;;;;;;;21.90;83.42;100284.16;5026183;28;20219;-64
2022/06/26 02:37:25;;;;;;;4.70;1.50;;;;;;;21.84;81.44;100276.94;5023808;28;20305;-64
2022/06/26 02:39:52;;;;;;;5.03;1.50;;;;;;;21.80;83.46;100278.47;5015161;28;20870;-65
2022/06/26 02:42:20;;;;;;;4.90;1.30;;;;;;;21.71;83.97;100276.06;5021420;28;20205;-65
2022/06/26 02:44:49;;;;;;;3.63;1.30;;;;;;;21.69;83.60;100277.31;5025393;28;20224;-65
2022/06/26 02:47:17;;;;;;;7.67;1.47;;;;;;;21.71;83.65;100267.97;5022372;28;20331;-64
2022/06/26 02:49:45;;;;;;;3.93;1.60;;;;;;;21.82;83.51;100265.53;5025983;28;20217;-65
2022/06/26 02:52:12;;;;;;;4.03;1.53;;;;;;;21.84;83.70;100253.47;5011463;28;20235;-65
2022/06/26 02:54:40;;;;;;;2.83;1.40;;;;;;;21.90;83.55;100240.97;5016112;28;20310;-64
2022/06/26 02:57:08;;;;;;;5.17;1.47;;;;;;;21.97;84.40;100242.56;5016103;28;20650;-64
2022/06/26 02:59:36;;;;;;;3.23;1.40;;;;;;;21.98;84.39;100238.81;5020964;28;20209;-65
2022/06/26 03:02:05;;;;;;;6.10;1.50;;;;;;;22.00;84.47;100239.38;5018814;28;20533;-64
2022/06/26 03:04:33;;;;;;;6.20;1.60;;;;;;;21.88;85.65;100254.69;5023385;28;20240;-65
2022/06/26 03:07:01;;;;;;;1.93;1.17;;;;;;;21.81;84.89;100256.66;5022483;28;20232;-64
2022/06/26 03:09:29;;;;;;;4.33;1.60;;;;;;;21.73;85.05;100251.53;5022930;28;20360;-64
2022/06/26 03:11:57;;;;;;;3.23;1.60;;;;;;;21.69;84.63;100244.94;5022072;28;20212;-64
2022/06/26 03:14:25;;;;;;;4.53;1.40;;;;;;;21.56;85.90;100247.78;5023976;28;20211;-64
2022/06/26 03:16:53;;;;;;;3.87;1.50;;;;;;;21.47;85.81;100257.22;5022927;28;20580;-64
2022/06/26 03:19:23;;;;;;;4.83;1.70;;;;;;;21.44;87.57;100263.91;5014003;28;20220;-65
2022/06/26 03:21:51;;;;;;;6.27;2.10;;;;;;;21.40;89.71;100281.56;5009531;28;20268;-64
2022/06/26 03:24:18;;;;;;;3.57;1.67;;;;;;;21.35;89.44;100293.06;5021020;28;20209;-63
2022/06/26 03:26:46;;;;;;;3.83;1.67;;;;;;;21.29;89.50;100285.81;5022529;28;20237;-65
2022/06/26 03:29:14;;;;;;;2.30;1.50;;;;;;;21.22;88.74;100293.16;5021879;28;20209;-66
2022/06/26 03:31:42;;;;;;;2.40;1.53;;;;;;;21.24;87.16;100301.88;5018860;28;20777;-65
2022/06/26 03:34:10;;;;;;;3.43;1.70;;;;;;;21.33;86.65;100303.22;5013015;28;20300;-65
2022/06/26 03:36:39;;;;;;;3.77;1.50;;;;;;;21.44;87.61;100303.56;5013396;28;20209;-65
2022/06/26 03:39:07;;;;;;;7.00;2.03;;;;;;;21.53;86.58;100313.00;5019204;28;20720;-64
2022/06/26 03:41:35;;;;;;;6.23;1.60;;;;;;;21.62;86.18;100320.59;5018539;28;20564;-64
2022/06/26 03:44:02;;;;;;;3.47;2.13;;;;;;;21.71;85.59;100315.72;5022756;28;20204;-65
2022/06/26 03:46:31;;;;;;;4.37;2.17;;;;;;;21.65;85.91;100305.81;5020765;28;20275;-65
2022/06/26 03:48:59;;;;;;;3.87;2.00;;;;;;;21.56;85.55;100315.22;5021073;28;20205;-65
2022/06/26 03:51:27;;;;;;;4.33;1.70;;;;;;;21.51;85.78;100317.78;5024855;28;20304;-66
2022/06/26 03:53:56;;;;;;;9.13;2.07;;;;;;;21.49;86.52;100314.47;5017583;28;20217;-65
2022/06/26 03:56:24;;;;;;;3.27;1.70;;;;;;;21.53;84.65;100326.50;5014946;28;20263;-66
2022/06/26 03:58:52;;;;;;;6.27;1.57;;;;;;;21.44;86.94;100328.66;5019126;28;20205;-65
2022/06/26 04:01:20;;;;;;;2.37;1.57;;;;;;;21.36;87.20;100320.84;5011928;28;20664;-65
2022/06/26 04:03:47;;;;;;;7.03;1.80;;;;;;;21.33;87.34;100327.50;5018122;28;20584;-64
2022/06/26 04:06:15;;;;;;;4.90;1.50;;;;;;;21.29;86.73;100336.25;5010824;28;20232;-64
2022/06/26 04:08:43;;;;;;;3.70;1.57;;;;;;;21.30;85.78;100335.19;5022212;28;20212;-63
2022/06/26 04:11:12;;;;;;;5.07;1.63;;;;;;;21.29;84.65;100328.97;5017059;28;20229;-67
2022/06/26 04:13:40;;;;;;;3.23;1.37;;;;;;;21.25;83.59;100321.56;5020179;28;20585;-66
2022/06/26 04:16:08;;;;;;;1.80;1.10;;;;;;;21.25;83.66;100325.09;5020106;28;20278;-65
2022/06/26 04:18:36;;;;;;;8.43;1.60;;;;;;;21.30;83.72;100327.94;5016292;28;20774;-66
2022/06/26 04:21:05;;;;;;;4.23;1.63;;;;;;;21.40;82.48;100344.44;5003791;28;20214;-65
2022/06/26 04:23:33;;;;;;;3.70;1.50;;;;;;;21.50;81.39;100332.31;5016919;28;20231;-65
2022/06/26 04:26:00;;;;;;;4.70;1.40;;;;;;;21.54;80.31;100334.38;5024149;28;20602;-65
2022/06/26 04:28:30;;;;;;;2.13;1.00;;;;;;;21.58;79.28;100321.25;5019685;28;20215;-65
2022/06/26 04:30:57;;;;;;;3.23;1.20;;;;;;;21.57;80.42;100322.28;5018041;28;20236;-65
2022/06/26 04:33:25;;;;;;;4.73;1.73;;;;;;;21.45;81.25;100322.22;5015577;28;20312;-65
2022/06/26 04:35:53;;;;;;;3.13;1.40;;;;;;;21.39;81.28;100326.59;5019436;28;20705;-66
2022/06/26 04:38:21;;;;;;;2.57;1.23;;;;;;;21.33;81.90;100319.41;5018384;28;20249;-66
2022/06/26 04:40:49;;;;;;;3.60;1.30;;;;;;;21.28;81.97;100324.66;5009708;28;20242;-66
2022/06/26 04:43:17;;;;;;;1.80;1.00;;;;;;;21.30;82.65;100333.31;5013300;28;20209;-65
2022/06/26 04:45:46;;;;;;;2.37;1.37;;;;;;;21.28;82.75;100345.41;5024878;28;20288;-66
2022/06/26 04:48:14;;;;;;;5.50;1.27;;;;;;;21.29;83.06;100345.16;5011873;28;20278;-66
2022/06/26 04:50:41;;;;;;;2.87;1.20;;;;;;;21.39;82.33;100347.34;5019664;28;20291;-65
2022/06/26 04:53:09;;;;;;;1.67;1.00;;;;;;;21.46;82.03;100344.63;5019551;28;20213;-66
2022/06/26 04:55:37;;;;;;;4.30;1.63;;;;;;;21.48;81.59;100347.91;5020687;28;21264;-66
2022/06/26 04:58:05;;;;;;;3.77;1.53;;;;;;;21.46;81.72;100337.31;5004847;28;20209;-64
2022/06/26 05:00:34;;;;;;;1.10;0.80;;;;;;;21.38;81.75;100340.31;5015340;28;20243;-65
2022/06/26 05:03:03;;;;;;;3.87;1.07;;;;;;;21.39;81.71;100342.78;5026211;28;20212;-63
2022/06/26 05:05:31;;;;;;;2.90;1.33;;;;;;;21.43;82.62;100347.75;5023299;28;20217;-67
2022/06/26 05:07:59;;;;;;;2.73;1.20;;;;;;;21.52;81.98;100358.03;5019276;28;20236;-66
2022/06/26 05:10:29;;;;;;;4.17;1.07;;;;;;;21.64;81.95;100358.09;5019626;28;20208;-66
2022/06/26 05:12:57;;;;;;;2.87;1.27;;;;;;;21.71;81.37;100362.41;5020320;28;20247;-64
2022/06/26 05:15:25;;;;;;;1.73;1.00;;;;;;;21.68;79.20;100368.25;5022221;28;20216;-65
2022/06/26 05:17:53;;;;;;;2.53;1.43;;;;;;;21.71;79.01;100375.91;5024246;28;20201;-65
2022/06/26 05:20:22;;;;;;;2.70;1.33;;;;;;;21.73;79.04;100370.25;5026210;28;20251;-65
2022/06/26 05:22:50;;;;;;;2.93;1.20;;;;;;;21.69;77.72;100363.69;5019630;28;20240;-64
2022/06/26 05:25:18;;;;;;;1.70;1.20;;;;;;;21.76;77.58;100364.44;5018549;28;20311;-65
2022/06/26 05:27:46;;;;;;;3.23;1.17;;;;;;;21.88;78.15;100364.53;5016775;28;20231;-65
2022/06/26 05:30:13;;;;;;;2.87;1.20;;;;;;;21.95;77.53;100362.56;5020070;28;20232;-65
2022/06/26 05:32:41;;;;;;;4.83;1.90;;;;;;;21.91;75.95;100367.59;5002133;28;21306;-65
2022/06/26 05:35:09;;;;;;;3.30;1.30;;;;;;;21.98;75.27;100376.50;5022715;28;20213;-64
2022/06/26 05:37:38;;;;;;;2.03;1.07;;;;;;;22.04;74.23;100389.09;5023668;28;20339;-65
2022/06/26 05:40:08;;;;;;;3.70;1.17;;;;;;;22.06;73.52;100392.38;5017089;28;20214;-66
2022/06/26 05:42:36;;;;;;;4.17;1.10;;;;;;;22.11;72.93;100406.03;5024393;28;20204;-66
2022/06/26 05:45:04;;;;;;;4.27;1.20;;;;;;;22.18;72.66;100408.66;5024457;28;20303;-65
2022/06/26 05:47:32;;;;;;;2.57;0.90;;;;;;;22.23;72.39;100399.88;5023646;28;20233;-66
2022/06/26 05:50:00;;;;;;;8.23;1.10;;;;;;;22.22;72.98;100411.72;5026226;28;20294;-65
2022/06/26 05:52:28;;;;;;;2.27;1.10;;;;;;;22.29;73.49;100417.88;5023077;28;20242;-65
2022/06/26 05:54:57;;;;;;;4.93;1.50;;;;;;;22.31;72.54;100410.38;5029786;28;20232;-65
2022/06/26 05:57:25;;;;;;;3.83;1.10;;;;;;;22.30;71.02;100403.31;5026277;28;20204;-64
2022/06/26 05:59:53;;;;;;;3.47;1.63;;;;;;;22.31;70.76;100397.69;5028115;28;20507;-66
2022/06/26 06:02:21;;;;;;;2.53;1.50;;;;;;;22.35;71.77;100384.56;5024833;28;20248;-65
2022/06/26 06:04:49;;;;;;;3.73;1.20;;;;;;;22.42;70.48;100390.72;5020974;28;20627;-64
2022/06/26 06:07:18;;;;;;;1.93;1.10;;;;;;;22.51;70.72;100409.09;5021088;28;20237;-65
2022/06/26 06:09:46;;;;;;;2.47;0.90;;;;;;;22.58;69.40;100411.69;5021629;28;20224;-66
2022/06/26 06:12:15;;;;;;;3.63;1.30;;;;;;;22.64;69.42;100421.59;5021158;28;20223;-66
2022/06/26 06:14:44;;;;;;;3.93;1.10;;;;;;;22.66;69.73;100418.66;5021231;28;20300;-66
2022/06/26 06:19:57;;;;;;;3.33;1.23;;;;;;;22.58;69.93;100413.56;5024666;28;20212;-65
2022/06/26 06:22:25;;;;;;;1.60;0.90;;;;;;;22.61;70.45;100427.44;5024862;28;20223;-65
2022/06/26 06:24:53;;;;;;;3.67;1.20;;;;;;;22.60;71.14;100419.59;5027407;28;20637;-65
2022/06/26 06:27:22;;;;;;;3.70;1.00;;;;;;;22.64;71.15;100418.88;5019819;28;20320;-65
2022/06/26 06:29:50;;;;;;;2.03;1.00;;;;;;;22.73;70.33;100431.03;5023240;28;20223;-65
2022/06/26 06:32:18;;;;;;;2.53;1.10;;;;;;;22.81;70.16;100433.44;5020974;28;20608;-64
2022/06/26 06:34:46;;;;;;;4.03;2.03;;;;;;;22.88;69.50;100439.59;5020388;28;20216;-67
2022/06/26 06:37:14;;;;;;;3.47;1.17;;;;;;;22.95;68.60;100450.34;5021021;28;20212;-66
2022/06/26 06:39:41;;;;;;;7.33;1.20;;;;;;;23.05;67.80;100455.16;5023549;28;20262;-66
2022/06/26 06:42:09;;;;;;;2.13;1.00;;;;;;;23.09;67.46;100461.75;5019921;28;22526;-67
2022/06/26 06:44:38;;;;;;;2.57;1.10;;;;;;;23.14;66.93;100464.59;5023142;28;20204;-66
2022/06/26 06:47:07;;;;;;;2.03;1.20;;;;;;;23.12;66.88;100462.16;5022267;28;20295;-66
2022/06/26 06:49:35;;;;;;;2.63;0.83;;;;;;;23.16;66.61;100470.59;5023536;28;20318;-65
2022/06/26 06:52:03;;;;;;;2.00;0.93;;;;;;;23.21;66.76;100465.34;5023073;28;20211;-65
2022/06/26 06:54:31;;;;;;;1.73;0.73;;;;;;;23.29;65.79;100462.31;5020898;28;20296;-65
2022/06/26 06:56:59;;;;;;;2.17;1.10;;;;;;;23.38;65.13;100468.22;4978498;28;1214064;-65
2022/06/26 06:59:28;;;;;;;3.83;1.00;;;;;;;23.47;64.82;100467.66;5019053;28;20311;-65
2022/06/26 07:01:57;;;;;;;2.78;1.10;;;;;;;23.52;64.75;100473.19;5021993;28;20217;-65
2022/06/26 07:04:25;;;;;;;2.97;1.20;;;;;;;23.57;63.73;100475.22;5017724;28;20233;-66
2022/06/26 07:06:58;;;;;;;1.20;0.90;;;;;;;23.61;63.21;100482.63;5023098;28;20686;-66
2022/06/26 07:09:26;;;;;;;2.72;0.98;;;;;;;23.55;63.27;100471.91;5021610;28;20229;-66
2022/06/26 07:11:56;;;;;;;1.58;1.08;;;;;;;23.52;63.57;100461.56;5021823;28;20251;-64
2022/06/26 07:14:24;;;;;;;1.83;1.00;;;;;;;23.50;62.64;100469.91;5018689;28;20258;-66
2022/06/26 07:16:52;;;;;;;3.80;1.30;;;;;;;23.47;63.25;100474.94;5021478;28;20299;-67
2022/06/26 07:19:21;;;;;;;1.98;1.00;;;;;;;23.51;63.42;100478.84;5019316;28;20204;-66
2022/06/26 07:21:49;;;;;;;1.70;0.80;;;;;;;23.51;62.98;100479.66;5023136;28;20217;-65
2022/06/26 07:24:17;;;;;;;3.30;1.08;;;;;;;23.48;63.93;100488.25;5021495;28;20228;-66
2022/06/26 07:26:45;;;;;;;1.50;0.88;;;;;;;23.51;64.10;100486.97;5021308;28;20292;-67
2022/06/26 07:29:13;;;;;;;2.90;1.23;;;;;;;23.67;63.42;100493.56;5021549;28;20308;-66
2022/06/26 07:31:41;;;;;;;2.40;1.05;;;;;;;23.81;63.17;100487.72;5021708;28;20698;-65
2022/06/26 07:34:16;;;;;;;2.15;1.10;;;;;;;23.86;62.96;100481.59;5019575;28;20205;-65
2022/06/26 07:36:47;;;;;;;2.35;1.00;;;;;;;23.81;63.39;100489.59;5020753;28;20941;-66
2022/06/26 07:39:16;;;;;;;2.10;1.13;;;;;;;23.81;62.89;100482.31;5021384;28;20224;-65
2022/06/26 07:41:46;;;;;;;1.73;1.00;;;;;;;23.83;62.55;100495.63;5017529;28;20295;-65
2022/06/26 07:44:15;;;;;;;1.95;1.10;;;;;;;23.92;63.01;100496.91;5019004;28;20745;-66
2022/06/26 07:46:43;;;;;;;1.70;0.95;;;;;;;24.06;61.96;100502.91;5018999;28;20705;-65
2022/06/26 07:49:13;;;;;;;2.55;0.85;;;;;;;24.16;61.45;100493.16;5022410;28;20231;-66
2022/06/26 07:51:41;;;;;;;3.95;1.15;;;;;;;24.25;61.17;100494.47;5022099;28;20268;-66
2022/06/26 07:54:10;;;;;;;1.75;0.80;;;;;;;24.33;60.46;100501.41;5020727;28;20236;-65
2022/06/26 07:56:39;;;;;;;3.03;1.00;;;;;;;24.38;59.61;100509.63;5024752;28;20248;-69
2022/06/26 07:59:07;;;;;;;2.05;1.10;;;;;;;24.42;59.81;100515.41;5024301;28;20568;-66
2022/06/26 08:01:35;;;;;;;2.47;1.25;;;;;;;24.44;58.00;100507.88;5019844;28;20682;-66
2022/06/26 08:04:03;;;;;;;2.33;0.88;;;;;;;24.45;58.82;100504.09;5021465;28;20232;-66
2022/06/26 08:06:31;;;;;;;2.20;0.80;;;;;;;24.51;58.64;100503.16;5022643;28;20219;-65
2022/06/26 08:08:59;;;;;;;4.20;1.80;;;;;;;24.56;58.69;100501.34;5027247;28;20233;-65
2022/06/26 08:11:28;;;;;;;2.80;1.00;;;;;;;24.63;60.08;100495.78;5022410;28;20303;-66
2022/06/26 08:13:56;;;;;;;2.38;1.23;;;;;;;24.68;59.33;100493.19;5020366;28;20224;-66
2022/06/26 08:16:24;;;;;;;5.53;1.00;;;;;;;24.76;58.96;100495.53;5023851;28;20262;-65
2022/06/26 08:18:52;;;;;;;1.52;1.00;;;;;;;24.81;58.94;100492.91;5022481;28;20205;-67
2022/06/26 08:24:08;;;;;;;1.75;1.00;;;;;;;24.91;57.16;100479.59;5018394;28;20294;-66
2022/06/26 08:26:42;;;;;;;1.67;1.08;;;;;;;24.96;55.87;100489.72;5020012;28;20702;-66
2022/06/26 08:29:10;;;;;;;2.15;1.02;;;;;;;25.02;56.56;100484.16;5019513;28;20230;-67
2022/06/26 08:31:38;;;;;;;2.92;0.95;;;;;;;25.08;57.02;100491.31;5020351;28;20247;-66
2022/06/26 08:34:05;;;;;;;3.55;1.05;;;;;;;25.16;57.86;100483.84;5021041;28;20208;-66
2022/06/26 08:36:33;;;;;;;5.88;1.60;;;;;;;25.16;57.77;100489.25;5017085;28;20211;-65
2022/06/26 08:39:04;;;;;;;2.60;1.27;;;;;;;25.21;57.31;100473.09;5019540;28;20596;-65
2022/06/26 08:41:36;;;;;;;4.45;1.52;;;;;;;25.28;57.30;100474.59;5018925;28;20231;-66
2022/06/26 08:44:05;;;;;;;1.63;1.00;;;;;;;25.28;57.30;100482.72;5016695;28;20209;-66
2022/06/26 08:46:37;;;;;;;2.40;1.08;;;;;;;25.34;56.37;100483.63;5018636;28;20266;-65
2022/06/26 08:49:10;;;;;;;1.15;0.63;;;;;;;25.46;55.77;100484.41;5017759;28;20232;-64
2022/06/26 08:51:40;;;;;;;2.28;1.00;;;;;;;25.52;54.82;100471.72;5019894;28;20674;-64
2022/06/26 08:54:09;;;;;;;3.75;0.95;;;;;;;25.45;54.85;100477.31;5013630;28;20303;-65
2022/06/26 08:56:38;;;;;;;3.92;1.10;;;;;;;25.53;54.38;100474.19;5018775;28;20235;-65
2022/06/26 08:59:07;;;;;;;3.75;0.98;;;;;;;25.61;53.68;100468.38;5020057;28;20216;-67
2022/06/26 09:01:36;;;;;;;2.60;1.20;;;;;;;25.62;53.80;100467.31;5021269;28;20959;-65
2022/06/26 09:04:05;;;;;;;3.17;1.30;;;;;;;25.70;53.96;100458.75;5019817;28;20243;-65
2022/06/26 09:06:34;;;;;;;4.45;1.13;;;;;;;25.67;54.75;100458.44;5019218;28;20219;-65
2022/06/26 09:09:14;;;;;;;3.55;1.08;;;;;;;25.72;53.47;100463.94;5020954;28;20685;-66
2022/06/26 09:11:43;;;;;;;1.42;0.80;;;;;;;25.79;52.80;100473.56;5019175;28;20196;-65
2022/06/26 09:14:13;;;;;;;1.88;0.90;;;;;;;25.85;52.40;100472.59;5022321;28;20233;-65
2022/06/26 09:16:43;;;;;;;4.43;1.35;;;;;;;25.93;52.47;100468.63;5017940;28;20327;-66
2022/06/26 09:19:13;;;;;;;3.60;0.88;;;;;;;25.91;52.47;100467.22;5019285;28;20207;-65
2022/06/26 09:21:41;;;;;;;3.78;0.93;;;;;;;25.93;53.11;100467.81;5017575;28;20209;-65
2022/06/26 09:24:11;;;;;;;2.42;1.02;;;;;;;26.06;51.45;100470.16;5016575;28;20205;-66
2022/06/26 09:26:39;;;;;;;1.65;0.90;;;;;;;26.10;51.65;100474.03;5016419;28;20302;-65
2022/06/26 09:29:12;;;;;;;2.47;1.00;;;;;;;26.12;51.02;100480.06;5019332;28;20710;-65
2022/06/26 09:31:41;;;;;;;3.58;1.10;;;;;;;26.18;50.94;100477.16;5019369;28;20233;-66
2022/06/26 09:34:21;;;;;;;60.58;12.93;;;;;;;26.23;50.62;100482.63;5015447;28;20212;-65
2022/06/26 09:36:57;;;;;;;13.10;3.10;;;;;;;26.32;49.80;100482.22;5018640;28;20637;-65
2022/06/26 09:39:25;;;;;;;11.35;2.00;;;;;;;26.26;49.31;100492.22;5016756;28;20303;-66
2022/06/26 09:41:53;;;;;;;6.20;0.98;;;;;;;26.29;48.58;100486.31;5018419;28;20241;-67
2022/06/26 09:44:24;;;;;;;6.63;1.00;;;;;;;26.36;48.83;100484.22;5021918;28;20634;-65
2022/06/26 09:46:51;;;;;;;7.05;1.10;;;;;;;26.42;48.96;100472.31;5020445;28;20251;-65
2022/06/26 09:49:20;;;;;;;1.55;0.80;;;;;;;26.41;49.20;100470.69;5020291;28;20224;-64
2022/06/26 09:51:48;;;;;;;0.93;0.77;;;;;;;26.43;48.51;100460.38;5024063;28;20208;-66
2022/06/26 09:54:16;;;;;;;1.08;0.60;;;;;;;26.49;48.93;100467.50;5022606;28;20280;-66
2022/06/26 09:56:44;;;;;;;3.08;0.73;;;;;;;26.48;48.44;100471.31;5005584;28;20241;-66
2022/06/26 09:59:13;;;;;;;3.10;1.00;;;;;;;26.57;49.57;100477.13;5010356;28;20209;-65
2022/06/26 10:07:16;;;;;;;0.98;0.73;;;;;;;26.61;48.72;100470.13;5009039;28;20921;-66
2022/06/26 10:09:44;;;;;;;1.65;0.70;;;;;;;26.67;48.55;100468.28;5008541;28;20786;-64
2022/06/26 10:12:13;;;;;;;1.58;0.65;;;;;;;26.71;48.81;100470.25;5008265;28;20260;-64
2022/06/26 10:14:46;;;;;;;2.10;0.90;;;;;;;26.82;49.65;100461.13;5007959;28;20209;-67
2022/06/26 10:17:42;;;;;;;2.25;0.70;;;;;;;27.03;48.85;100456.75;5006400;28;20209;-68
2022/06/26 10:20:16;;;;;;;0.77;0.70;;;;;;;27.13;47.93;100458.75;5008957;28;20293;-68
2022/06/26 10:22:45;;;;;;;1.00;0.70;;;;;;;27.25;47.80;100459.41;5004989;28;20212;-68
2022/06/26 10:25:22;;;;;;;1.40;0.80;;;;;;;27.50;46.97;100461.53;5006931;28;20205;-70
2022/06/26 10:27:50;;;;;;;1.95;0.80;;;;;;;27.54;46.57;100459.94;4998029;28;20211;-69
2022/06/26 10:30:21;;;;;;;0.98;0.68;;;;;;;27.48;46.08;100459.06;5005730;28;20344;-67
2022/06/26 10:33:09;;;;;;;1.23;0.50;;;;;;;27.37;46.22;100461.94;5004987;28;20257;-68
2022/06/26 10:35:39;;;;;;;0.90;0.57;;;;;;;27.19;46.40;100450.38;5007147;28;20209;-69
2022/06/26 10:38:19;;;;;;;2.33;0.90;;;;;;;27.19;48.13;100455.81;5006871;28;20241;-68
2022/06/26 10:43:44;;;;;;;3.60;0.70;;;;;;;27.21;47.71;100459.09;5008240;28;20221;-68
2022/06/26 10:46:13;;;;;;;1.88;0.85;;;;;;;27.28;47.27;100459.69;5006020;28;20232;-67
2022/06/26 10:48:53;;;;;;;1.45;0.68;;;;;;;27.33;46.75;100464.38;5004026;28;20217;-70
2022/06/26 10:51:26;;;;;;;1.58;0.95;;;;;;;27.45;45.40;100448.69;5008384;28;20243;-68
2022/06/26 10:53:54;;;;;;;1.40;0.98;;;;;;;27.64;45.31;100446.41;5007057;28;20229;-69
2022/06/26 10:56:22;;;;;;;1.45;0.65;;;;;;;27.78;44.99;100442.19;5006063;28;20237;-69
2022/06/26 10:59:00;;;;;;;1.75;0.60;;;;;;;27.95;44.82;100439.28;5000513;28;21146;-67
2022/06/26 11:01:28;;;;;;;1.88;0.88;;;;;;;27.99;46.11;100441.22;5004855;28;20343;-67
2022/06/26 11:04:03;;;;;;;1.20;0.55;;;;;;;27.88;44.09;100438.72;5003818;28;20226;-68
2022/06/26 11:06:31;;;;;;;1.40;0.60;;;;;;;27.76;44.87;100438.06;5004022;28;20241;-67
2022/06/26 11:08:59;;;;;;;1.80;0.60;;;;;;;27.66;45.37;100427.91;5007803;28;20666;-68
2022/06/26 11:11:31;;;;;;;2.08;0.47;;;;;;;27.65;46.26;100429.81;5008887;28;20225;-68
2022/06/26 11:14:01;;;;;;;1.08;0.70;;;;;;;27.63;45.05;100434.69;5008733;28;20209;-67
2022/06/26 11:16:32;;;;;;;1.27;0.70;;;;;;;27.55;45.49;100420.75;5010592;28;20300;-68
2022/06/26 11:19:03;;;;;;;1.90;0.65;;;;;;;27.40;45.98;100424.16;5007963;28;20223;-68
2022/06/26 11:21:31;;;;;;;0.85;0.65;;;;;;;27.24;45.87;100436.81;5003088;28;20580;-68
2022/06/26 11:24:01;;;;;;;2.30;0.80;;;;;;;27.13;46.54;100435.06;5003830;28;20209;-68
2022/06/26 11:26:29;;;;;;;1.48;0.70;;;;;;;27.05;46.09;100432.00;5003986;28;20277;-68
2022/06/26 11:29:00;;;;;;;0.47;0.40;;;;;;;26.95;46.46;100421.84;5000896;28;20214;-68
2022/06/26 11:31:30;;;;;;;1.50;0.60;;;;;;;26.92;47.08;100425.06;5004031;28;20427;-68
2022/06/26 11:34:09;;;;;;;0.85;0.60;;;;;;;26.86;48.33;100428.78;5005461;28;20252;-69
2022/06/26 11:36:37;;;;;;;0.77;0.60;;;;;;;26.78;48.24;100434.69;5006577;28;20618;-69
2022/06/26 11:39:05;;;;;;;0.65;0.63;;;;;;;26.70;47.17;100422.34;5004001;28;20217;-68
2022/06/26 11:41:33;;;;;;;4.00;0.80;;;;;;;26.71;46.67;100424.00;5004320;28;20305;-72
2022/06/26 11:44:01;;;;;;;1.90;0.80;;;;;;;26.69;47.06;100428.03;5002594;28;20216;-71
2022/06/26 11:46:29;;;;;;;0.98;0.70;;;;;;;26.75;48.26;100421.56;5000091;28;20233;-70
2022/06/26 11:48:58;;;;;;;0.60;0.55;;;;;;;26.79;46.60;100423.56;5002161;28;20221;-71
2022/06/26 11:51:31;;;;;;;0.70;0.70;;;;;;;26.83;46.63;100429.28;5005560;28;20320;-71